createdAt,value
2018-08-28T00:00:26.111Z,96291.97
2018-08-28T00:02:56.842Z,96293.27
2018-08-28T00:05:27.470Z,96283.72
2018-08-28T00:07:58.087Z,96286.53
2018-08-28T00:10:28.861Z,96291.77
2018-08-28T00:12:59.470Z,96287.57
2018-08-28T00:15:30.516Z,96287.84
2018-08-28T00:18:01.071Z,96283.64
2018-08-28T00:20:32.019Z,96291.59
2018-08-28T00:23:02.783Z,96292.97
2018-08-28T00:25:33.781Z,96294.02
2018-08-28T00:28:04.349Z,96296.20
2018-08-28T00:30:34.971Z,96290.27
2018-08-28T00:33:05.729Z,96297.58
2018-08-28T00:35:35.787Z,96294.84
2018-08-28T00:38:07.005Z,96301.16
2018-08-28T00:40:37.583Z,96301.36
2018-08-28T00:43:07.511Z,96300.30
2018-08-28T00:45:37.962Z,96305.77
2018-08-28T00:48:08.615Z,96299.18
2018-08-28T00:50:39.565Z,96304.20
2018-08-28T00:56:45.490Z,96304.27
2018-08-28T00:59:15.407Z,96306.50
2018-08-28T01:01:45.281Z,96306.44
2018-08-28T01:04:15.237Z,96307.62
2018-08-28T01:06:45.175Z,96319.55
2018-08-28T01:09:15.121Z,96318.50
2018-08-28T01:11:45.097Z,96313.77
2018-08-28T01:14:14.995Z,96314.38
2018-08-28T01:16:44.887Z,96311.43
2018-08-28T01:19:14.793Z,96310.23
2018-08-28T01:21:44.912Z,96309.53
2018-08-28T01:24:14.889Z,96311.35
2018-08-28T01:26:44.829Z,96312.29
2018-08-28T01:29:14.849Z,96314.45
2018-08-28T01:31:44.793Z,96313.92
2018-08-28T01:37:50.670Z,96316.01
2018-08-28T01:40:20.650Z,96313.25
2018-08-28T01:42:50.785Z,96313.06
2018-08-28T01:45:20.765Z,96306.36
2018-08-28T01:47:50.695Z,96301.17
2018-08-28T01:53:56.324Z,96298.69
2018-08-28T01:56:26.439Z,96301.95
2018-08-28T01:58:56.433Z,96305.39
2018-08-28T02:01:26.365Z,96305.64
2018-08-28T02:03:56.424Z,96304.37
2018-08-28T02:13:38.124Z,96297.72
2018-08-28T02:16:08.146Z,96304.16
2018-08-28T02:18:38.038Z,96298.74
2018-08-28T02:21:08.088Z,96295.98
2018-08-28T02:23:38.044Z,96296.77
2018-08-28T02:26:08.054Z,96296.24
2018-08-28T02:28:38.012Z,96299.95
2018-08-28T02:31:07.973Z,96297.36
2018-08-28T02:33:38.001Z,96291.69
2018-08-28T02:36:08.808Z,96300.98
2018-08-28T02:38:38.792Z,96300.39
2018-08-28T02:41:09.025Z,96295.30
2018-08-28T02:43:38.904Z,96301.08
2018-08-28T02:46:08.719Z,96305.36
2018-08-28T02:48:38.567Z,96300.47
2018-08-28T02:51:08.654Z,96302.73
2018-08-28T02:53:38.558Z,96305.11
2018-08-28T02:56:08.487Z,96301.08
2018-08-28T02:58:38.609Z,96303.09
2018-08-28T03:01:08.500Z,96301.46
2018-08-28T03:03:38.530Z,96313.03
2018-08-28T03:06:08.545Z,96305.11
2018-08-28T03:08:38.909Z,96306.59
2018-08-28T03:11:08.857Z,96306.60
2018-08-28T03:13:38.969Z,96306.67
2018-08-28T03:16:09.089Z,96312.53
2018-08-28T03:18:39.197Z,96310.63
2018-08-28T03:21:09.288Z,96308.14
2018-08-28T03:23:39.654Z,96305.64
2018-08-28T03:26:10.022Z,96305.84
2018-08-28T03:28:40.141Z,96313.84
2018-08-28T03:31:10.022Z,96311.35
2018-08-28T03:33:40.026Z,96307.55
2018-08-28T03:36:09.998Z,96304.80
2018-08-28T03:38:40.232Z,96316.00
2018-08-28T03:41:10.435Z,96306.95
2018-08-28T03:43:40.417Z,96309.19
2018-08-28T03:46:10.288Z,96309.71
2018-08-28T03:48:40.182Z,96312.98
2018-08-28T03:51:10.578Z,96317.46
2018-08-28T03:53:40.599Z,96313.52
2018-08-28T03:56:10.478Z,96312.98
2018-08-28T03:58:40.357Z,96315.90
2018-08-28T04:01:10.742Z,96319.34
2018-08-28T04:03:40.746Z,96316.93
2018-08-28T04:06:11.574Z,96326.48
2018-08-28T04:08:41.466Z,96325.53
2018-08-28T04:11:11.308Z,96319.34
2018-08-28T04:13:41.141Z,96324.41
2018-08-28T04:16:11.074Z,96319.66
2018-08-28T04:18:41.027Z,96316.92
2018-08-28T04:21:10.885Z,96325.77
2018-08-28T04:23:40.804Z,96316.49
2018-08-28T04:26:10.675Z,96321.83
2018-08-28T04:28:40.508Z,96327.78
2018-08-28T04:34:46.603Z,96333.91
2018-08-28T04:37:16.465Z,96332.52
2018-08-28T04:39:46.332Z,96332.51
2018-08-28T04:42:16.315Z,96336.64
2018-08-28T04:44:46.271Z,96338.97
2018-08-28T04:47:16.292Z,96344.24
2018-08-28T04:49:46.349Z,96337.00
2018-08-28T04:52:16.357Z,96344.23
2018-08-28T04:54:46.881Z,96344.95
2018-08-28T04:57:17.059Z,96345.63
2018-08-28T04:59:47.324Z,96355.39
2018-08-28T05:02:17.346Z,96353.03
2018-08-28T05:04:47.400Z,96354.75
2018-08-28T05:07:17.352Z,96352.52
2018-08-28T05:09:47.267Z,96346.48
2018-08-28T05:12:17.293Z,96342.59
2018-08-28T05:14:47.200Z,96342.45
2018-08-28T05:17:17.182Z,96344.38
2018-08-28T05:19:47.113Z,96351.42
2018-08-28T05:22:17.132Z,96345.31
2018-08-28T05:24:48.064Z,96347.13
2018-08-28T05:27:18.224Z,96345.76
2018-08-28T05:29:48.726Z,96350.84
2018-08-28T05:32:18.686Z,96348.34
2018-08-28T05:34:49.346Z,96347.81
2018-08-28T05:37:19.866Z,96345.83
2018-08-28T05:39:50.376Z,96347.58
2018-08-28T05:42:20.806Z,96347.83
2018-08-28T05:44:51.300Z,96347.74
2018-08-28T05:47:21.862Z,96346.02
2018-08-28T05:49:52.356Z,96344.59
2018-08-28T05:52:22.796Z,96353.17
2018-08-28T05:54:53.292Z,96347.54
2018-08-28T05:57:23.863Z,96347.88
2018-08-28T05:59:54.492Z,96357.72
2018-08-28T06:02:24.974Z,96354.77
2018-08-28T06:04:55.416Z,96353.98
2018-08-28T06:07:25.864Z,96356.19
2018-08-28T06:17:08.614Z,96354.70
2018-08-28T06:19:38.981Z,96351.69
2018-08-28T06:22:09.696Z,96356.06
2018-08-28T06:24:40.438Z,96359.95
2018-08-28T06:27:11.036Z,96352.97
2018-08-28T06:29:42.502Z,96357.20
2018-08-28T06:32:12.896Z,96351.94
2018-08-28T06:34:43.350Z,96357.75
2018-08-28T06:37:13.782Z,96356.49
2018-08-28T06:39:44.406Z,96352.83
2018-08-28T06:42:14.833Z,96350.02
2018-08-28T06:44:45.840Z,96352.89
2018-08-28T06:47:16.284Z,96348.41
2018-08-28T06:49:46.682Z,96346.56
2018-08-28T06:52:17.022Z,96349.25
2018-08-28T06:54:47.600Z,96344.44
2018-08-28T06:57:18.023Z,96343.52
2018-08-28T06:59:48.671Z,96343.74
2018-08-28T07:02:19.073Z,96341.22
2018-08-28T07:04:49.660Z,96335.80
2018-08-28T07:07:20.274Z,96338.14
2018-08-28T07:09:50.788Z,96336.77
2018-08-28T07:12:21.217Z,96331.07
2018-08-28T07:14:51.784Z,96335.27
2018-08-28T07:17:22.222Z,96333.24
2018-08-28T07:19:52.648Z,96328.63
2018-08-28T07:22:23.066Z,96334.04
2018-08-28T07:24:53.447Z,96334.87
2018-08-28T07:27:24.402Z,96326.39
2018-08-28T07:29:54.794Z,96326.11
2018-08-28T07:32:25.197Z,96331.78
2018-08-28T07:34:55.568Z,96328.11
2018-08-28T07:37:25.970Z,96325.98
2018-08-28T07:39:57.096Z,96327.59
2018-08-28T07:42:27.461Z,96326.88
2018-08-28T07:44:57.922Z,96332.08
2018-08-28T07:47:28.238Z,96330.20
2018-08-28T07:49:58.613Z,96333.31
2018-08-28T07:56:05.842Z,96336.55
2018-08-28T07:58:36.219Z,96338.03
2018-08-28T08:01:07.103Z,96348.42
2018-08-28T08:03:37.731Z,96345.33
2018-08-28T08:06:08.487Z,96342.10
2018-08-28T08:08:39.119Z,96342.58
2018-08-28T08:11:09.501Z,96345.98
2018-08-28T08:13:39.899Z,96342.72
2018-08-28T08:16:10.732Z,96345.78
2018-08-28T08:18:41.239Z,96352.42
2018-08-28T08:21:11.618Z,96351.94
2018-08-28T08:23:41.957Z,96347.86
2018-08-28T08:26:12.331Z,96345.31
2018-08-28T08:28:42.674Z,96349.41
2018-08-28T08:31:13.552Z,96347.00
2018-08-28T08:33:44.021Z,96347.73
2018-08-28T08:36:14.385Z,96337.05
2018-08-28T08:38:44.732Z,96338.66
2018-08-28T08:41:15.109Z,96332.67
2018-08-28T08:43:45.619Z,96330.84
2018-08-28T08:46:16.681Z,96338.14
2018-08-28T08:48:47.528Z,96335.70
2018-08-28T08:51:17.986Z,96330.92
2018-08-28T08:53:48.663Z,96329.67
2018-08-28T08:56:19.025Z,96328.94
2018-08-28T08:58:49.369Z,96332.07
2018-08-28T09:01:20.041Z,96325.00
2018-08-28T09:03:50.418Z,96329.20
2018-08-28T09:06:20.809Z,96322.78
2018-08-28T09:08:51.163Z,96321.44
2018-08-28T09:11:22.005Z,96316.00
2018-08-28T09:13:52.425Z,96320.00
2018-08-28T09:16:22.929Z,96316.55
2018-08-28T09:18:53.240Z,96316.00
2018-08-28T09:21:23.615Z,96318.61
2018-08-28T09:23:53.938Z,96318.02
2018-08-28T09:26:24.293Z,96312.28
2018-08-28T09:28:54.713Z,96302.55
2018-08-28T09:31:25.066Z,96302.41
2018-08-28T09:33:55.622Z,96297.45
2018-08-28T09:36:25.983Z,96298.74
2018-08-28T09:38:56.370Z,96295.42
2018-08-28T09:41:26.752Z,96301.59
2018-08-28T09:43:57.163Z,96296.23
2018-08-28T09:46:27.696Z,96295.41
2018-08-28T09:48:58.069Z,96291.49
2018-08-28T09:51:28.563Z,96289.52
2018-08-28T09:53:58.897Z,96290.88
2018-08-28T09:56:29.269Z,96288.47
2018-08-28T09:59:00.148Z,96284.75
2018-08-28T10:01:36.646Z,96290.02
2018-08-28T10:04:07.889Z,96291.42
2018-08-28T10:06:38.360Z,96287.63
2018-08-28T10:09:17.034Z,96293.20
2018-08-28T10:11:47.565Z,96291.41
2018-08-28T10:14:17.872Z,96293.08
2018-08-28T10:20:24.443Z,96279.81
2018-08-28T10:22:54.795Z,96284.19
2018-08-28T10:25:25.320Z,96287.72
2018-08-28T10:27:55.652Z,96286.45
2018-08-28T10:30:26.127Z,96279.32
2018-08-28T10:32:56.580Z,96272.91
2018-08-28T10:35:26.946Z,96274.65
2018-08-28T10:37:57.420Z,96267.30
2018-08-28T10:40:27.990Z,96269.88
2018-08-28T10:42:58.686Z,96269.61
2018-08-28T10:45:29.072Z,96254.27
2018-08-28T10:47:59.436Z,96261.31
2018-08-28T10:50:29.811Z,96259.63
2018-08-28T10:53:00.191Z,96256.28
2018-08-28T10:55:30.778Z,96253.98
2018-08-28T10:58:01.084Z,96267.04
2018-08-28T11:00:31.464Z,96253.32
2018-08-28T11:03:01.825Z,96250.78
2018-08-28T11:05:32.758Z,96252.38
2018-08-28T11:08:03.342Z,96248.33
2018-08-28T11:10:33.698Z,96245.80
2018-08-28T11:13:04.124Z,96248.98
2018-08-28T11:15:34.514Z,96246.57
2018-08-28T11:18:04.987Z,96241.17
2018-08-28T11:20:35.509Z,96243.87
2018-08-28T11:23:05.897Z,96245.08
2018-08-28T11:25:36.220Z,96242.81
2018-08-28T11:28:06.682Z,96234.97
2018-08-28T11:30:37.040Z,96238.38
2018-08-28T11:33:07.553Z,96239.52
2018-08-28T11:35:37.946Z,96238.77
2018-08-28T11:38:08.484Z,96231.88
2018-08-28T11:40:38.976Z,96235.41
2018-08-28T11:43:09.376Z,96235.02
2018-08-28T11:45:39.883Z,96236.24
2018-08-28T11:48:10.446Z,96233.59
2018-08-28T11:50:40.792Z,96237.97
2018-08-28T11:53:11.226Z,96233.57
2018-08-28T11:55:41.798Z,96230.09
2018-08-28T11:58:12.152Z,96227.47
2018-08-28T12:00:43.356Z,96226.02
2018-08-28T12:03:13.790Z,96224.62
2018-08-28T12:05:44.509Z,96218.85
2018-08-28T12:08:14.938Z,96220.09
2018-08-28T12:10:45.389Z,96220.17
2018-08-28T12:13:15.851Z,96217.45
2018-08-28T12:15:46.314Z,96209.20
2018-08-28T12:18:16.783Z,96208.63
2018-08-28T12:20:47.226Z,96205.60
2018-08-28T12:23:17.680Z,96208.81
2018-08-28T12:25:48.053Z,96202.17
2018-08-28T12:28:18.424Z,96208.98
2018-08-28T12:30:48.839Z,96204.17
2018-08-28T12:33:19.181Z,96197.55
2018-08-28T12:35:49.525Z,96198.21
2018-08-28T12:38:19.917Z,96192.81
2018-08-28T12:40:50.237Z,96185.48
2018-08-28T12:43:20.643Z,96179.28
2018-08-28T12:45:51.189Z,96171.04
2018-08-28T12:48:21.255Z,96177.03
2018-08-28T12:50:52.639Z,96171.06
2018-08-28T12:53:22.977Z,96172.13
2018-08-28T12:55:53.286Z,96166.44
2018-08-28T12:58:23.685Z,96170.04
2018-08-28T13:00:54.099Z,96168.67
2018-08-28T13:03:24.513Z,96162.52
2018-08-28T13:05:55.393Z,96167.02
2018-08-28T13:08:25.738Z,96160.55
2018-08-28T13:10:56.356Z,96160.20
2018-08-28T13:13:26.829Z,96156.08
2018-08-28T13:15:56.907Z,96154.50
2018-08-28T13:18:27.393Z,96156.50
2018-08-28T13:20:57.581Z,96147.48
2018-08-28T13:23:27.714Z,96151.91
2018-08-28T13:25:58.129Z,96151.72
2018-08-28T13:28:28.255Z,96156.61
2018-08-28T13:30:58.817Z,96149.59
2018-08-28T13:33:29.367Z,96151.44
2018-08-28T13:35:59.685Z,96140.97
2018-08-28T13:38:30.179Z,96134.77
2018-08-28T13:41:00.729Z,96142.66
2018-08-28T13:43:30.845Z,96139.07
2018-08-28T13:46:00.976Z,96135.08
2018-08-28T13:48:31.384Z,96126.26
2018-08-28T13:51:01.449Z,96124.20
2018-08-28T13:53:31.623Z,96127.22
2018-08-28T13:56:01.791Z,96122.02
2018-08-28T13:58:31.889Z,96124.17
2018-08-28T14:01:01.965Z,96121.24
2018-08-28T14:03:32.221Z,96120.09
2018-08-28T14:06:02.223Z,96115.01
2018-08-28T14:08:32.284Z,96120.66
2018-08-28T14:11:02.339Z,96120.09
2018-08-28T14:13:32.475Z,96122.67
2018-08-28T14:16:02.673Z,96114.80
2018-08-28T14:18:32.837Z,96116.78
2018-08-28T14:21:03.221Z,96116.02
2018-08-28T14:23:33.590Z,96111.40
2018-08-28T14:26:04.086Z,96098.39
2018-08-28T14:28:34.462Z,96102.11
2018-08-28T14:31:05.042Z,96097.41
2018-08-28T14:33:35.538Z,96103.77
2018-08-28T14:36:05.728Z,96101.56
2018-08-28T14:38:36.290Z,96098.69
2018-08-28T14:41:07.205Z,96101.45
2018-08-28T14:43:37.277Z,96099.98
2018-08-28T14:46:08.290Z,96095.06
2018-08-28T14:48:38.633Z,96099.18
2018-08-28T14:51:09.060Z,96091.65
2018-08-28T14:53:39.430Z,96097.43
2018-08-28T14:56:09.789Z,96095.75
2018-08-28T14:58:39.840Z,96086.24
2018-08-28T15:01:09.922Z,96087.48
2018-08-28T15:03:40.364Z,96079.36
2018-08-28T15:06:10.720Z,96085.13
2018-08-28T15:08:41.160Z,96083.25
2018-08-28T15:11:11.994Z,96083.44
2018-08-28T15:13:42.593Z,96074.73
2018-08-28T15:16:13.055Z,96068.92
2018-08-28T15:18:43.731Z,96077.08
2018-08-28T15:21:14.073Z,96072.90
2018-08-28T15:23:44.582Z,96077.00
2018-08-28T15:26:14.958Z,96080.50
2018-08-28T15:28:45.850Z,96078.50
2018-08-28T15:31:16.261Z,96070.90
2018-08-28T15:33:46.651Z,96070.47
2018-08-28T15:36:17.065Z,96069.58
2018-08-28T15:38:47.515Z,96074.73
2018-08-28T15:41:17.895Z,96074.53
2018-08-28T15:43:48.050Z,96068.63
2018-08-28T15:46:18.853Z,96063.80
2018-08-28T15:48:49.286Z,96064.47
2018-08-28T15:51:19.781Z,96068.73
2018-08-28T15:53:50.305Z,96061.73
2018-08-28T15:56:20.687Z,96062.85
2018-08-28T15:58:51.446Z,96060.52
2018-08-28T16:01:21.923Z,96058.48
2018-08-28T16:03:52.312Z,96064.41
2018-08-28T16:06:22.563Z,96058.35
2018-08-28T16:08:52.700Z,96061.69
2018-08-28T16:11:23.278Z,96060.76
2018-08-28T16:13:53.356Z,96065.14
2018-08-28T16:16:23.442Z,96065.58
2018-08-28T16:18:53.916Z,96068.01
2018-08-28T16:21:29.198Z,96063.41
2018-08-28T16:23:59.776Z,96062.12
2018-08-28T16:26:30.992Z,96058.52
2018-08-28T16:29:01.340Z,96051.98
2018-08-28T16:31:31.712Z,96053.13
2018-08-28T16:34:02.227Z,96057.39
2018-08-28T16:36:32.926Z,96052.11
2018-08-28T16:39:03.363Z,96047.29
2018-08-28T16:41:33.830Z,96046.92
2018-08-28T16:44:04.294Z,96053.56
2018-08-28T16:46:34.922Z,96051.95
2018-08-28T16:49:05.308Z,96044.37
2018-08-28T16:51:35.982Z,96042.38
2018-08-28T16:54:06.403Z,96037.16
2018-08-28T16:56:36.778Z,96039.77
2018-08-28T16:59:07.549Z,96031.52
2018-08-28T17:01:38.032Z,96035.50
2018-08-28T17:04:08.514Z,96027.00
2018-08-28T17:06:38.920Z,96028.62
2018-08-28T17:09:09.660Z,96021.41
2018-08-28T17:11:40.017Z,96024.03
2018-08-28T17:14:10.402Z,96030.20
2018-08-28T17:16:40.762Z,96025.88
2018-08-28T17:19:11.184Z,96029.16
2018-08-28T17:21:42.105Z,96032.16
2018-08-28T17:24:12.518Z,96033.02
2018-08-28T17:26:42.918Z,96038.20
2018-08-28T17:29:13.248Z,96035.41
2018-08-28T17:31:43.580Z,96035.84
2018-08-28T17:34:13.939Z,96039.21
2018-08-28T17:36:44.368Z,96035.38
2018-08-28T17:39:14.728Z,96035.78
2018-08-28T17:41:45.077Z,96041.70
2018-08-28T17:44:15.450Z,96046.67
2018-08-28T17:46:45.872Z,96042.77
2018-08-28T17:49:16.384Z,96042.77
2018-08-28T17:51:47.374Z,96043.44
2018-08-28T17:54:17.745Z,96044.55
2018-08-28T17:56:48.077Z,96050.01
2018-08-28T17:59:18.455Z,96049.47
2018-08-28T18:01:48.825Z,96045.80
2018-08-28T18:04:19.205Z,96048.59
2018-08-28T18:06:49.637Z,96045.90
2018-08-28T18:09:19.958Z,96047.05
2018-08-28T18:11:50.360Z,96052.21
2018-08-28T18:14:20.730Z,96049.48
2018-08-28T18:16:51.448Z,96045.45
2018-08-28T18:19:21.856Z,96046.88
2018-08-28T18:21:52.626Z,96046.80
2018-08-28T18:24:23.006Z,96045.13
2018-08-28T18:26:53.361Z,96042.34
2018-08-28T18:29:23.754Z,96040.50
2018-08-28T18:31:54.151Z,96042.52
2018-08-28T18:34:24.895Z,96044.69
2018-08-28T18:36:55.439Z,96042.06
2018-08-28T18:39:25.839Z,96041.00
2018-08-28T18:41:56.219Z,96040.26
2018-08-28T18:44:26.957Z,96037.60
2018-08-28T18:46:58.154Z,96036.86
2018-08-28T18:49:28.658Z,96036.83
2018-08-28T18:51:59.499Z,96040.64
2018-08-28T18:54:29.881Z,96034.69
2018-08-28T18:57:00.425Z,96040.73
2018-08-28T18:59:30.869Z,96035.83
2018-08-28T19:02:01.203Z,96036.33
2018-08-28T19:04:31.543Z,96039.23
2018-08-28T19:07:02.245Z,96040.31
2018-08-28T19:09:32.779Z,96043.88
2018-08-28T19:12:03.099Z,96040.02
2018-08-28T19:14:33.609Z,96039.39
2018-08-28T19:17:04.531Z,96035.28
2018-08-28T19:19:35.135Z,96041.44
2018-08-28T19:22:05.551Z,96042.22
2018-08-28T19:24:35.957Z,96036.08
2018-08-28T19:27:06.479Z,96033.00
2018-08-28T19:29:37.780Z,96035.48
2018-08-28T19:32:08.261Z,96035.19
2018-08-28T19:34:38.990Z,96037.93
2018-08-28T19:37:09.643Z,96047.17
2018-08-28T19:39:40.049Z,96032.36
2018-08-28T19:42:10.447Z,96045.17
2018-08-28T19:44:41.109Z,96040.98
2018-08-28T19:47:11.467Z,96040.82
2018-08-28T19:49:41.862Z,96037.88
2018-08-28T19:52:12.427Z,96034.81
2018-08-28T19:54:42.891Z,96042.66
2018-08-28T19:57:13.450Z,96043.70
2018-08-28T19:59:45.429Z,96052.11
2018-08-28T20:02:15.845Z,96044.33
2018-08-28T20:04:46.229Z,96038.30
2018-08-28T20:07:16.611Z,96036.86
2018-08-28T20:09:47.063Z,96031.77
2018-08-28T20:12:17.827Z,96029.58
2018-08-28T20:14:48.250Z,96027.14
2018-08-28T20:17:18.956Z,96024.22
2018-08-28T20:19:49.804Z,96026.67
2018-08-28T20:22:20.302Z,96024.63
2018-08-28T20:24:50.653Z,96025.11
2018-08-28T20:27:21.722Z,96027.10
2018-08-28T20:29:52.566Z,96020.05
2018-08-28T20:32:23.155Z,96024.32
2018-08-28T20:34:53.637Z,96015.39
2018-08-28T20:37:24.121Z,96009.58
2018-08-28T20:39:54.673Z,96016.38
2018-08-28T20:42:25.088Z,96013.55
2018-08-28T20:44:55.504Z,96002.45
2018-08-28T20:47:59.875Z,96010.28
2018-08-28T20:50:30.344Z,96007.16
2018-08-28T20:53:00.720Z,96004.69
2018-08-28T20:55:31.296Z,96004.25
2018-08-28T20:58:01.767Z,96007.38
2018-08-28T21:00:35.504Z,96005.34
2018-08-28T21:03:07.051Z,96008.06
2018-08-28T21:05:37.476Z,96000.41
2018-08-28T21:08:07.824Z,95995.91
2018-08-28T21:10:38.168Z,95994.02
2018-08-28T21:13:09.411Z,95985.90
2018-08-28T21:15:40.274Z,95978.88
2018-08-28T21:18:10.714Z,95981.70
2018-08-28T21:20:41.240Z,95978.22
2018-08-28T21:23:11.605Z,95977.73
2018-08-28T21:25:42.088Z,95973.20
2018-08-28T21:28:12.506Z,95968.69
2018-08-28T21:30:42.980Z,95978.62
2018-08-28T21:33:13.416Z,95975.56
2018-08-28T21:35:43.967Z,95972.03
2018-08-28T21:38:15.260Z,95969.89
2018-08-28T21:40:45.768Z,95967.03
2018-08-28T21:43:16.181Z,95974.08
2018-08-28T21:45:46.542Z,95970.25
2018-08-28T21:48:17.040Z,95963.34
2018-08-28T21:50:47.653Z,95963.48
2018-08-28T21:53:18.097Z,95963.48
2018-08-28T21:55:48.448Z,95964.93
2018-08-28T21:58:18.799Z,95963.34
2018-08-28T22:00:54.312Z,95951.34
2018-08-28T22:03:24.770Z,95953.82
2018-08-28T22:05:55.243Z,95958.45
2018-08-28T22:08:25.975Z,95961.58
2018-08-28T22:10:56.771Z,95959.98
2018-08-28T22:13:27.199Z,95958.67
2018-08-28T22:16:54.334Z,95956.13
2018-08-28T22:19:25.192Z,95955.77
2018-08-28T22:21:55.670Z,95945.77
2018-08-28T22:24:26.085Z,95943.53
2018-08-28T22:26:58.621Z,95945.69
2018-08-28T22:29:29.280Z,95940.94
2018-08-28T22:31:59.706Z,95939.39
2018-08-28T22:34:30.448Z,95939.67
2018-08-28T22:37:00.870Z,95936.20
2018-08-28T22:39:31.474Z,95936.88
2018-08-28T22:42:01.889Z,95935.81
2018-08-28T22:44:32.412Z,95930.42
2018-08-28T22:47:02.800Z,95936.44
2018-08-28T22:49:33.172Z,95943.98
2018-08-28T22:52:03.540Z,95941.50
2018-08-28T22:54:33.839Z,95940.26
2018-08-28T22:57:04.358Z,95940.23
2018-08-28T22:59:34.734Z,95948.69
2018-08-28T23:02:05.138Z,95948.30
2018-08-28T23:04:35.494Z,95949.19
2018-08-28T23:07:05.974Z,95938.92
2018-08-28T23:09:36.307Z,95934.22
2018-08-28T23:12:06.950Z,95930.57
2018-08-28T23:14:37.456Z,95934.11
2018-08-28T23:17:07.831Z,95930.96
2018-08-28T23:19:38.152Z,95935.94
2018-08-28T23:22:08.626Z,95932.69
2018-08-28T23:24:39.152Z,95938.25
2018-08-28T23:27:09.556Z,95936.56
2018-08-28T23:29:39.957Z,95934.89
2018-08-28T23:32:09.770Z,95933.94
2018-08-28T23:34:40.186Z,95940.98
2018-08-28T23:40:47.121Z,95949.44
2018-08-28T23:43:17.454Z,95956.38
2018-08-28T23:45:47.800Z,95955.00
2018-08-28T23:48:18.240Z,95948.11
2018-08-28T23:50:48.771Z,95935.23
2018-08-28T23:53:19.142Z,95939.48
2018-08-28T23:55:49.486Z,95939.52
2018-08-28T23:58:19.803Z,95953.58
